KLNQ

Boothville Heliport

Boothville, Louisiana, USA
METAR KLNQ 162355Z AUTO 00000KT 10SM CLR 09/07 A3025 RMK AO2 T00890069 10115 20089
Observed Flight Rules
Dec-16 @ 23:55 UTC (31 minutes ago) Visual Flight Rules
Visibility Clouds
10 miles
  • Clear skies
Temperatures Readings
Current 9°C / 48°F
Dewpoint 7°C / 45°F
Humidity 87%
Altimeter 30.25" Hg
Pressure 1024 hPa
Elevation 1
METAR KLNQ 162355Z AUTO 00000KT 10SM CLR 09/07 A3025 RMK AO2 T00890069 10115 20089
Observed Flight Rules
Dec-16 @ 23:55 UTC
(31 minutes ago)
VFR
Clouds
  • Clear skies
Temperature Dewpoint
9°C / 48°F 7°C / 45°F
Humidity Altimeter Pressure
87% 30.25" Hg 1024 hPa